Time;durP1;ratioP1;P1;durP2;ratioP2;P2;SDS_P1;SDS_P2;PMS_P1;PMS_P2;Temp;Humidity;BMP_temperature;BMP_pressure;BME280_temperature;BME280_humidity;BME280_pressure;Samples;Min_cycle;Max_cycle;Signal;HPM_P1;HPM_P2
2021/07/09 00:02:52;;;;;;;4.93;4.53;;;;;;;20.33;100.00;96346.41;5012710;28;20278;-84
2021/07/09 00:05:19;;;;;;;5.07;4.67;;;;;;;20.37;100.00;96345.75;5012651;28;20207;-84
2021/07/09 00:07:47;;;;;;;5.53;5.13;;;;;;;20.48;100.00;96346.09;5012277;28;20290;-84
2021/07/09 00:10:14;;;;;;;4.50;4.07;;;;;;;20.37;100.00;96351.09;5012572;28;20668;-83
2021/07/09 00:12:43;;;;;;;4.40;4.10;;;;;;;20.56;100.00;96345.84;5012322;28;20235;-84
2021/07/09 00:15:11;;;;;;;5.53;5.13;;;;;;;20.55;100.00;96346.88;5012500;28;20196;-83
2021/07/09 00:17:38;;;;;;;5.17;4.73;;;;;;;20.55;100.00;96354.88;5012726;28;20199;-83
2021/07/09 00:20:07;;;;;;;5.00;4.60;;;;;;;20.56;100.00;96346.66;5012073;28;20294;-84
2021/07/09 00:22:34;;;;;;;4.57;4.17;;;;;;;20.46;100.00;96359.63;5012651;28;20199;-83
2021/07/09 00:25:02;;;;;;;5.67;5.27;;;;;;;20.28;100.00;96339.06;5011967;28;20223;-83
2021/07/09 00:27:29;;;;;;;5.83;5.33;;;;;;;20.44;100.00;96332.38;5012423;28;20213;-84
2021/07/09 00:29:57;;;;;;;5.17;4.67;;;;;;;20.39;100.00;96329.53;5012404;28;20203;-83
2021/07/09 00:32:25;;;;;;;4.67;4.27;;;;;;;20.34;100.00;96308.81;5012438;28;20731;-83
2021/07/09 00:34:52;;;;;;;5.40;5.00;;;;;;;20.42;100.00;96305.06;5012418;28;20195;-83
2021/07/09 00:37:19;;;;;;;5.30;4.90;;;;;;;20.38;100.00;96303.88;5012021;28;20207;-83
2021/07/09 00:39:47;;;;;;;5.00;4.60;;;;;;;20.32;100.00;96294.06;5012069;28;20200;-83
2021/07/09 00:42:14;;;;;;;5.20;4.80;;;;;;;20.22;100.00;96280.41;5012330;28;20291;-83
2021/07/09 00:44:41;;;;;;;5.30;4.90;;;;;;;20.29;100.00;96287.31;5012136;28;20227;-83
2021/07/09 00:47:11;;;;;;;5.77;5.27;;;;;;;20.29;100.00;96281.97;5012178;28;20684;-83
2021/07/09 00:49:38;;;;;;;5.17;4.77;;;;;;;20.13;100.00;96262.00;5012163;28;20273;-83
2021/07/09 00:52:06;;;;;;;4.77;4.37;;;;;;;20.02;100.00;96241.38;5012373;28;20239;-83
2021/07/09 00:54:33;;;;;;;5.93;5.00;;;;;;;20.10;100.00;96250.94;5011891;28;20664;-83
2021/07/09 00:57:02;;;;;;;5.83;5.23;;;;;;;19.88;100.00;96238.00;5012115;28;20199;-83
2021/07/09 00:59:29;;;;;;;5.23;4.83;;;;;;;19.91;100.00;96226.06;5011959;28;20227;-83
2021/07/09 01:01:59;;;;;;;7.07;5.30;;;;;;;20.04;100.00;96211.81;5012328;28;20222;-83
2021/07/09 01:04:28;;;;;;;6.10;4.67;;;;;;;19.86;100.00;96225.91;5011818;28;20239;-83
2021/07/09 01:06:56;;;;;;;5.50;5.00;;;;;;;20.07;100.00;96214.03;5011889;28;20199;-83
2021/07/09 01:09:23;;;;;;;5.27;4.87;;;;;;;19.84;100.00;96225.31;5011889;28;20195;-82
2021/07/09 01:11:51;;;;;;;5.27;4.77;;;;;;;19.90;100.00;96227.09;5011763;28;20287;-84
2021/07/09 01:14:19;;;;;;;4.73;4.43;;;;;;;19.90;100.00;96217.25;5012152;28;20196;-83
2021/07/09 01:16:46;;;;;;;4.70;4.40;;;;;;;19.77;100.00;96224.53;5012036;28;20204;-82
2021/07/09 01:19:16;;;;;;;5.63;5.17;;;;;;;19.93;100.00;96224.00;5011838;28;20196;-83
2021/07/09 01:21:45;;;;;;;5.20;4.80;;;;;;;19.99;100.00;96220.47;5012035;28;20282;-83
2021/07/09 01:24:16;;;;;;;5.17;4.40;;;;;;;19.92;100.00;96209.84;5011710;28;20219;-83
2021/07/09 01:26:44;;;;;;;7.27;4.40;;;;;;;19.77;100.00;96197.88;5012461;28;20253;-82
2021/07/09 01:29:12;;;;;;;5.17;4.67;;;;;;;19.66;100.00;96232.22;5011383;28;20672;-83
2021/07/09 01:31:43;;;;;;;5.57;4.90;;;;;;;19.73;100.00;96234.00;5011833;28;20262;-84
2021/07/09 01:34:10;;;;;;;6.00;5.40;;;;;;;19.89;100.00;96273.50;5011644;28;20653;-83
2021/07/09 01:36:38;;;;;;;5.20;4.80;;;;;;;19.77;100.00;96291.22;5011446;28;20199;-83
2021/07/09 01:39:06;;;;;;;5.20;4.80;;;;;;;19.94;100.00;96305.66;5015281;28;20238;-83
2021/07/09 01:41:35;;;;;;;4.73;4.37;;;;;;;19.70;100.00;96310.72;5015291;28;20203;-83
2021/07/09 01:44:03;;;;;;;4.90;4.60;;;;;;;19.67;100.00;96294.34;5014962;28;20192;-82
2021/07/09 01:46:31;;;;;;;5.00;4.60;;;;;;;19.49;100.00;96266.53;5014963;28;20291;-83
2021/07/09 01:48:58;;;;;;;4.73;4.40;;;;;;;19.66;100.00;96274.06;5014920;28;20563;-82
2021/07/09 01:51:26;;;;;;;5.50;4.80;;;;;;;19.36;100.00;96279.13;5015282;28;20696;-83
2021/07/09 01:53:53;;;;;;;5.27;4.87;;;;;;;19.49;100.00;96279.06;5015170;28;20562;-83
2021/07/09 01:56:20;;;;;;;4.97;4.60;;;;;;;19.52;100.00;96270.63;5014943;28;20199;-83
2021/07/09 01:58:49;;;;;;;5.33;4.93;;;;;;;19.24;100.00;96253.16;5014869;28;20195;-83
2021/07/09 02:01:17;;;;;;;5.47;5.07;;;;;;;19.19;100.00;96226.34;5014981;28;20235;-83
2021/07/09 02:03:44;;;;;;;4.93;4.53;;;;;;;19.16;100.00;96212.63;5014712;28;20200;-83
2021/07/09 02:06:12;;;;;;;4.63;4.23;;;;;;;19.10;100.00;96193.00;5014822;28;20226;-83
2021/07/09 02:08:39;;;;;;;5.30;4.90;;;;;;;18.99;100.00;96186.50;5014704;28;20239;-83
2021/07/09 02:11:06;;;;;;;4.70;4.27;;;;;;;19.11;100.00;96189.28;5014926;28;20660;-83
2021/07/09 02:13:34;;;;;;;5.27;4.87;;;;;;;19.17;100.00;96183.09;5014132;28;20235;-83
2021/07/09 02:16:02;;;;;;;4.90;4.50;;;;;;;19.31;100.00;96210.47;5014598;28;20207;-83
2021/07/09 02:18:30;;;;;;;5.43;4.93;;;;;;;18.82;100.00;96211.16;5014857;28;20226;-83
2021/07/09 02:20:58;;;;;;;5.80;5.40;;;;;;;18.65;100.00;96174.34;5014746;28;20231;-83
2021/07/09 02:23:26;;;;;;;5.23;4.83;;;;;;;18.82;100.00;96163.25;5014719;28;20318;-83
2021/07/09 02:25:53;;;;;;;6.27;5.40;;;;;;;18.92;100.00;96140.44;5014463;28;20263;-83
2021/07/09 02:28:20;;;;;;;5.60;5.20;;;;;;;18.84;100.00;96130.03;5014773;28;20230;-83
2021/07/09 02:30:48;;;;;;;6.40;5.63;;;;;;;18.69;100.00;96121.47;5014530;28;20199;-82
2021/07/09 02:33:17;;;;;;;5.33;4.93;;;;;;;18.89;100.00;96105.44;5014096;28;20207;-83
2021/07/09 02:35:44;;;;;;;5.23;4.80;;;;;;;18.82;100.00;96110.78;5014436;28;20206;-83
2021/07/09 02:38:11;;;;;;;4.70;4.40;;;;;;;18.81;100.00;96113.66;5014152;28;20231;-82
2021/07/09 02:40:40;;;;;;;5.67;5.23;;;;;;;18.68;100.00;96115.34;5013969;28;20195;-81
2021/07/09 02:43:08;;;;;;;5.23;4.67;;;;;;;18.70;100.00;96107.97;5014318;28;20199;-81
2021/07/09 02:45:36;;;;;;;6.40;5.67;;;;;;;18.95;100.00;96117.91;5014044;28;20673;-81
2021/07/09 02:48:03;;;;;;;5.50;5.00;;;;;;;18.97;100.00;96137.94;5013473;28;20204;-82
2021/07/09 02:50:32;;;;;;;4.87;4.47;;;;;;;19.07;100.00;96165.97;5013055;28;20192;-82
2021/07/09 02:52:59;;;;;;;5.20;4.70;;;;;;;19.03;100.00;96189.53;5014034;28;20199;-82
2021/07/09 02:55:27;;;;;;;5.37;4.87;;;;;;;18.83;100.00;96186.16;5013831;28;20238;-81
2021/07/09 02:57:54;;;;;;;5.10;4.60;;;;;;;18.84;100.00;96166.50;5013710;28;20203;-81
2021/07/09 03:00:21;;;;;;;5.43;4.93;;;;;;;18.86;100.00;96140.47;5013490;28;20234;-82
2021/07/09 03:02:49;;;;;;;5.93;5.43;;;;;;;18.95;100.00;96142.69;5013605;28;20211;-82
2021/07/09 03:05:16;;;;;;;5.73;5.23;;;;;;;18.94;100.00;96126.91;5013859;28;20223;-82
2021/07/09 03:07:45;;;;;;;6.23;5.73;;;;;;;18.84;100.00;96123.88;5013780;28;20230;-81
2021/07/09 03:10:14;;;;;;;7.13;5.87;;;;;;;18.62;100.00;96113.53;5013160;28;20203;-82
2021/07/09 03:12:41;;;;;;;6.90;5.77;;;;;;;18.71;100.00;96096.31;5013421;28;20235;-82
2021/07/09 03:15:12;;;;;;;5.60;5.13;;;;;;;18.77;100.00;96094.63;5013472;28;20199;-82
2021/07/09 03:17:40;;;;;;;5.73;5.17;;;;;;;18.66;100.00;96090.78;5013496;28;20242;-82
2021/07/09 03:20:09;;;;;;;5.93;5.43;;;;;;;18.63;100.00;96080.56;5013203;28;20692;-82
2021/07/09 03:22:37;;;;;;;5.83;5.40;;;;;;;18.64;100.00;96068.09;5013511;28;20199;-81
2021/07/09 03:25:08;;;;;;;4.90;4.50;;;;;;;18.68;100.00;96080.75;5013145;28;20219;-81
2021/07/09 03:27:35;;;;;;;6.27;5.77;;;;;;;18.91;100.00;96093.53;5013038;28;20184;-82
2021/07/09 03:30:03;;;;;;;6.93;6.37;;;;;;;18.94;100.00;96113.59;5013488;28;20199;-82
2021/07/09 03:32:31;;;;;;;5.67;5.17;;;;;;;18.99;100.00;96145.72;5013271;28;20199;-82
2021/07/09 03:34:58;;;;;;;5.73;5.33;;;;;;;18.92;100.00;96158.28;5013038;28;20242;-82
2021/07/09 03:37:25;;;;;;;5.53;5.07;;;;;;;18.80;100.00;96130.66;5010730;28;20208;-82
2021/07/09 03:39:53;;;;;;;6.07;5.47;;;;;;;18.69;100.00;96111.66;5008257;28;20257;-82
2021/07/09 03:42:22;;;;;;;6.20;5.70;;;;;;;18.62;100.00;96086.09;5010998;28;20220;-83
2021/07/09 03:44:49;;;;;;;5.80;5.40;;;;;;;18.57;100.00;96070.78;5013022;28;20227;-83
2021/07/09 03:47:16;;;;;;;6.17;5.57;;;;;;;18.64;100.00;96068.91;5012847;28;20767;-83
2021/07/09 03:49:44;;;;;;;6.43;5.40;;;;;;;18.61;100.00;96069.31;5012987;28;20203;-84
2021/07/09 03:52:11;;;;;;;6.33;5.83;;;;;;;18.59;100.00;96073.22;5012773;28;20695;-83
2021/07/09 03:54:38;;;;;;;5.90;5.30;;;;;;;18.59;100.00;96070.56;5012569;28;20249;-84
2021/07/09 03:57:06;;;;;;;6.50;5.90;;;;;;;18.65;100.00;96043.91;5012581;28;20231;-83
2021/07/09 03:59:35;;;;;;;6.10;5.50;;;;;;;18.72;100.00;96018.09;5011775;28;20196;-82
2021/07/09 04:02:02;;;;;;;7.07;6.40;;;;;;;18.96;100.00;95994.34;5012513;28;20218;-81
2021/07/09 04:04:30;;;;;;;6.23;5.73;;;;;;;19.00;100.00;95995.53;5012321;28;20233;-81
2021/07/09 04:06:57;;;;;;;7.33;6.30;;;;;;;19.17;100.00;96001.94;5012236;28;20191;-81
2021/07/09 04:09:24;;;;;;;6.70;6.13;;;;;;;19.19;100.00;96007.88;5010306;28;20206;-81
2021/07/09 04:11:51;;;;;;;6.77;6.27;;;;;;;19.33;100.00;96007.72;5010817;28;20199;-82
2021/07/09 04:14:19;;;;;;;6.80;6.10;;;;;;;19.31;100.00;96018.63;5012734;28;20318;-81
2021/07/09 04:16:47;;;;;;;6.27;5.77;;;;;;;19.34;100.00;96012.84;5012690;28;20231;-80
2021/07/09 04:19:15;;;;;;;6.13;5.10;;;;;;;19.41;100.00;96015.47;5012393;28;20200;-79
2021/07/09 04:21:42;;;;;;;8.97;6.10;;;;;;;19.37;100.00;96016.94;5012984;28;20235;-80
2021/07/09 04:24:09;;;;;;;6.70;5.97;;;;;;;19.30;100.00;96026.84;5011934;28;20200;-80
2021/07/09 04:26:37;;;;;;;7.77;5.87;;;;;;;19.37;100.00;96032.94;5012663;28;20310;-80
2021/07/09 04:29:05;;;;;;;6.30;5.77;;;;;;;19.41;100.00;96066.09;5012478;28;20239;-80
2021/07/09 04:31:32;;;;;;;6.83;5.73;;;;;;;19.53;100.00;96085.66;5012349;28;20210;-80
2021/07/09 04:34:01;;;;;;;8.93;5.17;;;;;;;19.53;100.00;96098.97;5012179;28;20306;-79
2021/07/09 04:36:29;;;;;;;6.27;5.43;;;;;;;19.48;100.00;96128.16;5012049;28;20636;-80
2021/07/09 04:38:56;;;;;;;5.53;4.90;;;;;;;19.49;100.00;96127.94;5012034;28;20262;-80
2021/07/09 04:41:23;;;;;;;5.43;4.93;;;;;;;19.56;100.00;96167.03;5012544;28;20201;-80
2021/07/09 04:43:51;;;;;;;4.93;4.53;;;;;;;19.53;100.00;96188.81;5011913;28;20290;-79
2021/07/09 04:46:18;;;;;;;5.27;4.87;;;;;;;19.55;100.00;96206.22;5012099;28;20226;-80
2021/07/09 04:48:46;;;;;;;6.73;5.00;;;;;;;19.69;100.00;96205.13;5012505;28;20637;-80
2021/07/09 04:51:14;;;;;;;5.23;4.83;;;;;;;19.74;100.00;96214.31;5012005;28;20204;-80
2021/07/09 04:53:42;;;;;;;5.23;4.83;;;;;;;19.89;100.00;96244.16;5012284;28;20269;-80
2021/07/09 04:56:09;;;;;;;7.40;5.30;;;;;;;19.84;100.00;96250.13;5011971;28;20562;-80
2021/07/09 04:58:36;;;;;;;5.37;4.97;;;;;;;19.88;100.00;96253.16;5012234;28;20230;-79
2021/07/09 05:01:04;;;;;;;5.97;5.37;;;;;;;19.91;100.00;96242.88;5011928;28;20230;-80
2021/07/09 05:03:31;;;;;;;4.70;4.30;;;;;;;19.96;100.00;96255.59;5011864;28;20199;-80
2021/07/09 05:05:58;;;;;;;6.10;5.57;;;;;;;20.01;100.00;96257.59;5011935;28;20269;-80
2021/07/09 05:08:27;;;;;;;5.40;4.97;;;;;;;20.09;100.00;96239.47;5011856;28;20269;-80
2021/07/09 05:10:54;;;;;;;5.80;5.27;;;;;;;20.10;100.00;96209.06;5012147;28;20199;-80
2021/07/09 05:13:22;;;;;;;5.37;4.97;;;;;;;20.11;100.00;96192.03;5014486;28;20235;-80
2021/07/09 05:15:49;;;;;;;5.87;4.93;;;;;;;20.21;100.00;96183.50;5015832;28;20191;-80
2021/07/09 05:18:16;;;;;;;5.87;5.40;;;;;;;20.27;100.00;96176.50;5015690;28;20660;-80
2021/07/09 05:20:43;;;;;;;9.33;6.00;;;;;;;20.39;100.00;96172.03;5015538;28;20261;-79
2021/07/09 05:23:11;;;;;;;6.40;5.40;;;;;;;20.47;100.00;96166.41;5015463;28;20206;-80
2021/07/09 05:25:40;;;;;;;5.90;5.40;;;;;;;20.50;100.00;96171.31;5015389;28;20223;-80
2021/07/09 05:28:08;;;;;;;5.83;5.40;;;;;;;20.58;100.00;96178.22;5015132;28;20196;-80
2021/07/09 05:30:36;;;;;;;5.73;5.33;;;;;;;20.71;100.00;96195.91;5015739;28;20200;-80
2021/07/09 05:33:03;;;;;;;6.23;5.83;;;;;;;20.79;100.00;96217.81;5015246;28;20243;-80
2021/07/09 05:35:32;;;;;;;6.27;5.73;;;;;;;20.99;100.00;96238.09;5015366;28;20234;-80
2021/07/09 05:38:00;;;;;;;5.47;5.07;;;;;;;21.16;100.00;96271.19;5015286;28;20594;-80
2021/07/09 05:40:27;;;;;;;5.60;5.10;;;;;;;21.28;100.00;96306.00;5015260;28;20199;-80
2021/07/09 05:42:56;;;;;;;5.13;4.73;;;;;;;21.44;100.00;96337.50;5015153;28;20299;-80
2021/07/09 05:45:23;;;;;;;6.17;5.77;;;;;;;21.55;100.00;96366.16;5015206;28;20234;-80
2021/07/09 05:47:50;;;;;;;5.93;5.37;;;;;;;21.71;100.00;96396.00;5014891;28;20668;-80
2021/07/09 05:50:18;;;;;;;5.57;5.07;;;;;;;21.84;100.00;96438.63;5015054;28;20206;-80
2021/07/09 05:52:45;;;;;;;6.03;5.53;;;;;;;21.89;100.00;96433.44;5015301;28;20278;-80
2021/07/09 05:55:13;;;;;;;5.27;4.87;;;;;;;22.06;100.00;96442.47;5014681;28;20209;-80
2021/07/09 05:57:41;;;;;;;6.43;5.63;;;;;;;22.22;100.00;96433.00;5014905;28;20199;-80
2021/07/09 06:00:11;;;;;;;5.90;5.20;;;;;;;22.33;100.00;96435.94;5014816;28;20203;-81
2021/07/09 06:02:39;;;;;;;5.20;4.70;;;;;;;22.46;100.00;96457.97;5014960;28;20183;-80
2021/07/09 06:05:07;;;;;;;5.33;4.93;;;;;;;22.58;100.00;96484.78;5014726;28;20238;-81
2021/07/09 06:07:35;;;;;;;5.57;5.10;;;;;;;22.70;100.00;96496.38;5014485;28;20204;-80
2021/07/09 06:10:03;;;;;;;5.00;4.40;;;;;;;22.88;100.00;96502.69;5014657;28;20199;-81
2021/07/09 06:12:30;;;;;;;4.80;4.40;;;;;;;22.93;100.00;96521.59;5014949;28;20231;-81
2021/07/09 06:14:57;;;;;;;4.80;4.27;;;;;;;23.14;100.00;96560.44;5014535;28;20203;-81
2021/07/09 06:17:27;;;;;;;4.63;4.23;;;;;;;23.24;100.00;96576.78;5014488;28;20233;-81
2021/07/09 06:19:55;;;;;;;4.33;4.03;;;;;;;23.32;100.00;96567.59;5014339;28;20235;-81
2021/07/09 06:22:22;;;;;;;5.27;4.77;;;;;;;23.38;100.00;96574.69;5014622;28;20199;-81
2021/07/09 06:24:49;;;;;;;4.73;4.33;;;;;;;23.43;100.00;96583.69;5013671;28;20239;-81
2021/07/09 06:27:17;;;;;;;4.97;4.10;;;;;;;23.74;100.00;96579.06;5014418;28;20318;-80
2021/07/09 06:29:44;;;;;;;4.40;4.00;;;;;;;23.93;100.00;96644.16;5014176;28;20239;-81
2021/07/09 06:32:11;;;;;;;5.33;4.83;;;;;;;23.96;100.00;96659.78;5014699;28;20250;-81
2021/07/09 06:34:40;;;;;;;4.57;4.17;;;;;;;24.14;100.00;96667.75;5014094;28;20199;-81
2021/07/09 06:37:07;;;;;;;5.77;4.20;;;;;;;24.19;100.00;96685.84;5014616;28;20226;-81
2021/07/09 06:39:35;;;;;;;7.07;4.77;;;;;;;24.23;100.00;96686.19;5014299;28;20227;-81
2021/07/09 06:42:02;;;;;;;4.70;4.37;;;;;;;24.55;100.00;96682.06;5014194;28;20234;-81
2021/07/09 06:44:29;;;;;;;4.73;4.30;;;;;;;24.70;100.00;96692.34;5014196;28;20645;-81
2021/07/09 06:46:57;;;;;;;4.80;4.40;;;;;;;24.99;100.00;96695.03;5013756;28;20226;-81
2021/07/09 06:49:24;;;;;;;4.93;4.53;;;;;;;24.81;100.00;96709.47;5013801;28;20200;-81
2021/07/09 06:51:54;;;;;;;4.83;4.50;;;;;;;24.90;100.00;96734.91;5014105;28;20207;-81
2021/07/09 06:54:21;;;;;;;4.27;3.93;;;;;;;25.05;100.00;96748.69;5013731;28;20199;-81
2021/07/09 06:56:48;;;;;;;4.67;4.23;;;;;;;25.45;100.00;96742.47;5013752;28;20198;-81
2021/07/09 06:59:16;;;;;;;4.20;3.90;;;;;;;25.64;100.00;96755.72;5013933;28;20243;-81
2021/07/09 07:01:43;;;;;;;5.93;3.83;;;;;;;25.34;100.00;96778.31;5013814;28;20195;-81
2021/07/09 07:04:10;;;;;;;4.33;4.03;;;;;;;25.31;100.00;96781.47;5013794;28;20203;-81
2021/07/09 07:06:38;;;;;;;4.03;3.73;;;;;;;25.48;100.00;96784.22;5013381;28;20289;-81
2021/07/09 07:09:06;;;;;;;4.10;3.80;;;;;;;25.43;100.00;96801.09;5013544;28;20196;-81
2021/07/09 07:11:34;;;;;;;4.20;3.90;;;;;;;25.81;100.00;96811.25;5013629;28;20710;-81
2021/07/09 07:14:01;;;;;;;3.67;3.40;;;;;;;25.80;100.00;96820.38;5013354;28;20235;-81
2021/07/09 07:16:28;;;;;;;3.47;3.20;;;;;;;25.98;100.00;96826.59;5013554;28;20257;-81
2021/07/09 07:18:56;;;;;;;3.90;3.60;;;;;;;26.30;100.00;96835.78;5012998;28;20238;-81
2021/07/09 07:21:23;;;;;;;4.30;4.00;;;;;;;26.41;100.00;96826.00;5013518;28;20292;-81
2021/07/09 07:23:50;;;;;;;4.77;4.30;;;;;;;26.67;100.00;96839.88;5013300;28;20203;-81
2021/07/09 07:26:19;;;;;;;3.65;3.45;;;;;;;26.76;100.00;96846.50;5013110;28;20227;-81
2021/07/09 07:28:46;;;;;;;4.13;3.67;;;;;;;27.01;100.00;96843.34;5013169;28;20588;-81
2021/07/09 07:31:14;;;;;;;5.35;4.90;;;;;;;26.96;100.00;96843.28;5013478;28;20290;-81
2021/07/09 07:33:42;;;;;;;3.60;3.30;;;;;;;26.93;100.00;96851.88;5013379;28;20257;-81
2021/07/09 07:36:10;;;;;;;3.83;3.53;;;;;;;27.18;100.00;96851.41;5012250;28;20242;-81
2021/07/09 07:38:37;;;;;;;3.33;3.13;;;;;;;27.43;100.00;96853.59;5013386;28;20633;-81
2021/07/09 07:41:05;;;;;;;4.57;3.40;;;;;;;27.29;100.00;96863.97;5012911;28;20199;-81
2021/07/09 07:43:33;;;;;;;3.40;3.20;;;;;;;27.47;100.00;96849.38;5012896;28;20238;-81
2021/07/09 07:46:01;;;;;;;3.30;3.10;;;;;;;27.58;100.00;96850.28;5012896;28;20223;-82
2021/07/09 07:48:28;;;;;;;3.40;3.10;;;;;;;27.46;100.00;96853.09;5012626;28;20676;-81
2021/07/09 07:50:55;;;;;;;4.80;3.58;;;;;;;27.07;100.00;96857.72;5012979;28;20295;-82
2021/07/09 07:53:23;;;;;;;4.00;3.22;;;;;;;26.88;100.00;96841.81;5012757;28;20666;-81
2021/07/09 07:55:50;;;;;;;3.47;3.17;;;;;;;26.75;100.00;96863.75;5012669;28;20688;-82
2021/07/09 07:58:17;;;;;;;4.10;3.40;;;;;;;26.42;100.00;96846.47;5012713;28;20199;-81
2021/07/09 08:00:47;;;;;;;4.38;3.20;;;;;;;26.00;100.00;96851.44;5012756;28;20295;-82
2021/07/09 08:03:14;;;;;;;3.72;3.47;;;;;;;26.71;100.00;96846.44;5012571;28;20692;-81
2021/07/09 08:05:41;;;;;;;3.55;3.35;;;;;;;27.31;100.00;96850.25;5012847;28;20202;-82
2021/07/09 08:08:09;;;;;;;3.90;3.30;;;;;;;27.42;100.00;96863.59;5012402;28;20227;-81
2021/07/09 08:10:36;;;;;;;3.78;3.28;;;;;;;27.20;100.00;96849.28;5012726;28;20231;-81
2021/07/09 08:13:04;;;;;;;3.75;3.35;;;;;;;26.71;100.00;96843.75;5012448;28;20237;-82
2021/07/09 08:15:31;;;;;;;3.75;3.53;;;;;;;26.65;100.00;96831.22;5012541;28;20290;-81
2021/07/09 08:18:00;;;;;;;5.57;3.85;;;;;;;26.58;100.00;96835.97;5012308;28;20199;-82
2021/07/09 08:20:28;;;;;;;4.40;3.25;;;;;;;26.49;100.00;96822.09;5012768;28;20207;-82
2021/07/09 08:22:55;;;;;;;3.60;3.30;;;;;;;27.01;100.00;96836.06;5012488;28;20203;-81
2021/07/09 08:25:22;;;;;;;4.65;4.18;;;;;;;27.49;100.00;96849.91;5012545;28;20277;-82
2021/07/09 08:27:50;;;;;;;4.50;4.13;;;;;;;27.46;100.00;96850.41;5012197;28;20680;-82
2021/07/09 08:30:17;;;;;;;6.43;3.72;;;;;;;27.25;100.00;96847.47;5012328;28;20235;-81
2021/07/09 08:32:45;;;;;;;7.18;3.67;;;;;;;26.77;100.00;96845.41;5012286;28;20253;-81
2021/07/09 08:35:14;;;;;;;3.58;3.28;;;;;;;26.58;100.00;96835.97;5012365;28;20204;-82
2021/07/09 08:37:43;;;;;;;3.58;3.38;;;;;;;26.55;100.00;96813.84;5012340;28;20579;-82
2021/07/09 08:40:11;;;;;;;3.63;3.33;;;;;;;26.48;100.00;96818.59;5012246;28;20206;-82
2021/07/09 08:42:39;;;;;;;4.55;3.40;;;;;;;26.68;100.00;96833.44;5012322;28;20231;-82
2021/07/09 08:45:08;;;;;;;3.67;3.42;;;;;;;27.44;100.00;96847.16;5012166;28;20207;-82
2021/07/09 08:47:36;;;;;;;3.90;3.13;;;;;;;27.70;100.00;96854.47;5015215;28;20314;-82
2021/07/09 08:50:07;;;;;;;5.45;3.95;;;;;;;27.50;100.00;96859.63;5016436;28;20199;-82
2021/07/09 08:52:37;;;;;;;3.67;3.38;;;;;;;27.29;100.00;96861.25;5016204;28;20730;-82
2021/07/09 08:55:05;;;;;;;4.85;3.15;;;;;;;27.67;100.00;96860.38;5016198;28;20203;-82
2021/07/09 08:57:33;;;;;;;3.55;3.28;;;;;;;27.90;100.00;96869.28;5016142;28;20261;-82
2021/07/09 09:00:00;;;;;;;3.67;3.38;;;;;;;27.76;100.00;96874.28;5016464;28;20640;-82
2021/07/09 09:02:28;;;;;;;3.80;3.45;;;;;;;27.61;100.00;96871.38;5016173;28;20561;-82
2021/07/09 09:04:56;;;;;;;4.72;3.30;;;;;;;27.88;100.00;96874.13;5015780;28;20199;-82
2021/07/09 09:07:28;;;;;;;4.72;3.45;;;;;;;27.99;100.00;96886.69;5015953;28;20674;-82
2021/07/09 09:09:57;;;;;;;4.63;3.17;;;;;;;28.46;100.00;96882.56;5015873;28;20188;-82
2021/07/09 09:12:25;;;;;;;4.15;2.85;;;;;;;28.40;100.00;96879.81;5015701;28;20728;-82
2021/07/09 09:14:52;;;;;;;3.78;2.85;;;;;;;28.18;100.00;96900.66;5015932;28;20270;-81
2021/07/09 09:17:28;;;;;;;4.35;3.30;;;;;;;28.27;100.00;96884.81;5015716;28;20230;-81
2021/07/09 09:20:13;;;;;;;3.40;3.10;;;;;;;27.94;100.00;96895.53;5015594;28;20203;-82
2021/07/09 09:23:01;;;;;;;3.38;3.15;;;;;;;27.76;100.00;96897.78;5016075;28;20627;-82
2021/07/09 09:25:32;;;;;;;4.72;3.30;;;;;;;27.42;100.00;96887.88;5016103;28;20575;-82
2021/07/09 09:28:02;;;;;;;4.82;3.42;;;;;;;27.20;100.00;96874.38;5015480;28;20700;-81
2021/07/09 09:30:30;;;;;;;10.93;3.45;;;;;;;27.24;100.00;96891.72;5015965;28;20630;-82
2021/07/09 09:33:01;;;;;;;4.43;3.30;;;;;;;27.07;100.00;96871.22;5015672;28;20298;-81
2021/07/09 09:35:29;;;;;;;3.40;3.10;;;;;;;27.09;100.00;96871.75;5015557;28;20283;-82
2021/07/09 09:37:58;;;;;;;4.38;3.25;;;;;;;27.06;100.00;96873.09;5015412;28;20297;-82
2021/07/09 09:40:26;;;;;;;3.40;3.13;;;;;;;27.47;100.00;96876.34;5015401;28;20762;-82
2021/07/09 09:42:56;;;;;;;4.05;3.65;;;;;;;27.72;100.00;96892.03;5015153;28;20214;-82
2021/07/09 09:45:25;;;;;;;3.55;3.30;;;;;;;28.31;100.00;96885.91;5015153;28;20227;-82
2021/07/09 09:47:53;;;;;;;3.55;3.22;;;;;;;28.67;100.00;96877.03;5015278;28;20259;-82
2021/07/09 09:50:22;;;;;;;4.10;3.13;;;;;;;28.78;100.00;96882.53;5015042;28;20204;-82
2021/07/09 09:52:50;;;;;;;3.63;3.30;;;;;;;28.27;100.00;96895.63;5015016;28;20203;-82
2021/07/09 09:55:23;;;;;;;5.13;3.60;;;;;;;27.39;100.00;96884.88;5015154;28;20195;-82
2021/07/09 09:58:10;;;;;;;3.78;3.30;;;;;;;27.41;100.00;96880.06;5014327;28;20233;-81
2021/07/09 10:00:39;;;;;;;5.10;2.70;;;;;;;27.63;100.00;96882.75;5015216;28;20245;-82
2021/07/09 10:03:07;;;;;;;3.75;3.20;;;;;;;27.82;100.00;96881.38;5014806;28;20346;-82
2021/07/09 10:05:37;;;;;;;3.30;3.00;;;;;;;27.69;100.00;96887.94;5014886;28;20294;-82
2021/07/09 10:08:08;;;;;;;3.20;2.97;;;;;;;28.21;100.00;96892.03;5014933;28;20688;-82
2021/07/09 10:10:37;;;;;;;3.42;3.05;;;;;;;28.67;100.00;96898.66;5014690;28;20192;-82
2021/07/09 10:13:05;;;;;;;4.97;2.92;;;;;;;28.86;100.00;96901.00;5014182;28;20724;-82
2021/07/09 10:15:35;;;;;;;3.35;2.80;;;;;;;28.80;100.00;96897.41;5014720;28;20200;-82
2021/07/09 10:18:03;;;;;;;3.63;3.40;;;;;;;28.98;100.00;96907.00;5014465;28;20258;-82
2021/07/09 10:20:30;;;;;;;6.32;2.90;;;;;;;28.78;100.00;96901.44;5014213;28;20203;-82
2021/07/09 10:23:01;;;;;;;5.13;2.88;;;;;;;28.60;100.00;96895.38;5014392;28;20199;-82
2021/07/09 10:25:29;;;;;;;4.90;2.78;;;;;;;28.93;100.00;96898.88;5014364;28;20763;-82
2021/07/09 10:27:57;;;;;;;3.08;2.60;;;;;;;29.07;100.00;96891.97;5014632;28;20318;-82
2021/07/09 10:30:38;;;;;;;3.00;2.75;;;;;;;29.39;100.00;96894.56;5014404;28;20195;-81
2021/07/09 10:33:31;;;;;;;6.07;2.80;;;;;;;29.94;100.00;96867.16;5014343;28;20286;-82
2021/07/09 10:36:00;;;;;;;5.93;2.90;;;;;;;30.01;100.00;96895.63;5014198;28;20550;-82
2021/07/09 10:38:37;;;;;;;3.95;2.60;;;;;;;30.04;100.00;96891.56;5014123;28;20674;-82
2021/07/09 10:41:16;;;;;;;5.97;2.95;;;;;;;30.25;100.00;96879.69;5014669;28;20238;-82
2021/07/09 10:43:44;;;;;;;5.68;2.53;;;;;;;30.11;100.00;96877.75;5013888;28;20204;-82
2021/07/09 10:46:13;;;;;;;4.03;2.47;;;;;;;29.96;100.00;96883.94;5014238;28;20257;-82
2021/07/09 10:48:40;;;;;;;3.40;3.15;;;;;;;29.97;100.00;96875.56;5013793;28;20321;-82
2021/07/09 10:51:12;;;;;;;8.02;2.70;;;;;;;30.06;100.00;96873.94;5014108;28;20290;-82
2021/07/09 10:53:40;;;;;;;3.75;2.97;;;;;;;30.28;100.00;96872.94;5013598;28;20192;-82
2021/07/09 10:56:12;;;;;;;4.38;2.63;;;;;;;30.55;100.00;96875.34;5013948;28;20199;-82
2021/07/09 10:58:41;;;;;;;2.65;2.45;;;;;;;30.28;100.00;96881.06;5013976;28;20274;-82
2021/07/09 11:01:18;;;;;;;5.40;2.92;;;;;;;30.25;100.00;96882.41;5013829;28;20195;-82
2021/07/09 11:03:48;;;;;;;2.97;2.70;;;;;;;30.36;100.00;96880.53;5013755;28;20278;-82
2021/07/09 11:06:17;;;;;;;9.40;2.95;;;;;;;30.44;100.00;96879.97;5013590;28;20188;-82
2021/07/09 11:08:53;;;;;;;2.97;2.72;;;;;;;30.56;100.00;96874.28;5013911;28;20227;-82
2021/07/09 11:11:56;;;;;;;3.60;3.30;;;;;;;30.38;100.00;96870.22;5012908;28;20195;-82
2021/07/09 11:14:35;;;;;;;3.65;2.65;;;;;;;30.55;100.00;96865.34;5009959;28;20206;-82
2021/07/09 11:17:17;;;;;;;3.35;3.05;;;;;;;30.19;100.00;96863.69;5013963;28;20187;-82
2021/07/09 11:19:45;;;;;;;4.88;2.60;;;;;;;29.30;100.00;96865.53;5013695;28;20183;-82
2021/07/09 11:22:14;;;;;;;3.97;2.85;;;;;;;29.34;100.00;96861.25;5013442;28;20237;-83
2021/07/09 11:24:45;;;;;;;4.35;2.92;;;;;;;29.38;100.00;96844.19;5013086;28;20199;-83
2021/07/09 11:27:13;;;;;;;3.83;3.10;;;;;;;29.29;100.00;96836.84;5013314;28;20207;-83
2021/07/09 11:29:41;;;;;;;4.05;3.00;;;;;;;29.34;100.00;96836.88;5013276;28;20246;-82
2021/07/09 11:32:11;;;;;;;3.30;3.00;;;;;;;29.60;100.00;96843.22;5013109;28;20287;-83